sensor_id;sensor_type;location;lat;lon;timestamp;temperature;humidity
1103;DHT22;538;42.654;23.376;2023-04-25T00:01:24;12.80;79.60
1103;DHT22;538;42.654;23.376;2023-04-25T00:03:53;12.80;78.80
1103;DHT22;538;42.654;23.376;2023-04-25T00:08:52;13.00;77.20
1103;DHT22;538;42.654;23.376;2023-04-25T00:11:19;12.90;76.10
1103;DHT22;538;42.654;23.376;2023-04-25T00:13:46;12.90;77.20
1103;DHT22;538;42.654;23.376;2023-04-25T00:16:15;12.90;78.60
1103;DHT22;538;42.654;23.376;2023-04-25T00:18:42;12.90;79.60
1103;DHT22;538;42.654;23.376;2023-04-25T00:21:13;12.90;77.80
1103;DHT22;538;42.654;23.376;2023-04-25T00:26:07;12.50;76.50
1103;DHT22;538;42.654;23.376;2023-04-25T00:28:35;12.70;78.70
1103;DHT22;538;42.654;23.376;2023-04-25T00:31:02;12.70;80.70
1103;DHT22;538;42.654;23.376;2023-04-25T00:38:25;12.40;84.80
1103;DHT22;538;42.654;23.376;2023-04-25T00:40:52;12.30;85.40
1103;DHT22;538;42.654;23.376;2023-04-25T00:43:21;12.40;86.80
1103;DHT22;538;42.654;23.376;2023-04-25T00:45:48;12.50;87.90
1103;DHT22;538;42.654;23.376;2023-04-25T00:48:17;12.30;88.60
1103;DHT22;538;42.654;23.376;2023-04-25T00:50:52;12.50;89.30
1103;DHT22;538;42.654;23.376;2023-04-25T00:53:19;12.50;89.10
1103;DHT22;538;42.654;23.376;2023-04-25T00:55:49;12.60;88.50
1103;DHT22;538;42.654;23.376;2023-04-25T01:00:45;12.60;86.60
1103;DHT22;538;42.654;23.376;2023-04-25T01:05:40;12.70;85.40
1103;DHT22;538;42.654;23.376;2023-04-25T01:10:36;12.80;84.10
1103;DHT22;538;42.654;23.376;2023-04-25T01:13:04;12.80;82.80
1103;DHT22;538;42.654;23.376;2023-04-25T01:15:32;12.70;81.30
1103;DHT22;538;42.654;23.376;2023-04-25T01:17:59;12.70;80.10
1103;DHT22;538;42.654;23.376;2023-04-25T01:20:26;12.70;81.30
1103;DHT22;538;42.654;23.376;2023-04-25T01:22:55;12.60;81.70
1103;DHT22;538;42.654;23.376;2023-04-25T01:25:22;12.60;82.10
1103;DHT22;538;42.654;23.376;2023-04-25T01:27:50;12.80;81.70
1103;DHT22;538;42.654;23.376;2023-04-25T01:30:17;12.60;79.60
1103;DHT22;538;42.654;23.376;2023-04-25T01:32:44;12.60;79.40
1103;DHT22;538;42.654;23.376;2023-04-25T01:35:12;12.50;80.60
1103;DHT22;538;42.654;23.376;2023-04-25T01:37:39;12.50;81.40
1103;DHT22;538;42.654;23.376;2023-04-25T01:40:09;12.50;81.60
1103;DHT22;538;42.654;23.376;2023-04-25T01:42:39;12.50;81.10
1103;DHT22;538;42.654;23.376;2023-04-25T01:45:08;12.50;81.00
1103;DHT22;538;42.654;23.376;2023-04-25T01:50:06;12.40;81.10
1103;DHT22;538;42.654;23.376;2023-04-25T01:52:34;12.50;81.90
1103;DHT22;538;42.654;23.376;2023-04-25T01:55:01;12.40;82.50
1103;DHT22;538;42.654;23.376;2023-04-25T01:57:30;12.60;82.50
1103;DHT22;538;42.654;23.376;2023-04-25T01:59:59;12.60;82.20
1103;DHT22;538;42.654;23.376;2023-04-25T02:02:27;12.40;82.20
1103;DHT22;538;42.654;23.376;2023-04-25T02:04:54;12.50;83.00
1103;DHT22;538;42.654;23.376;2023-04-25T02:07:22;12.40;82.70
1103;DHT22;538;42.654;23.376;2023-04-25T02:14:45;12.20;81.10
1103;DHT22;538;42.654;23.376;2023-04-25T02:19:39;12.20;82.10
1103;DHT22;538;42.654;23.376;2023-04-25T02:22:06;12.20;83.30
1103;DHT22;538;42.654;23.376;2023-04-25T02:24:33;12.20;83.90
1103;DHT22;538;42.654;23.376;2023-04-25T02:27:00;12.00;83.10
1103;DHT22;538;42.654;23.376;2023-04-25T02:29:28;12.10;84.30
1103;DHT22;538;42.654;23.376;2023-04-25T02:31:57;12.10;85.40
1103;DHT22;538;42.654;23.376;2023-04-25T02:34:24;12.20;86.00
1103;DHT22;538;42.654;23.376;2023-04-25T02:39:18;12.10;85.30
1103;DHT22;538;42.654;23.376;2023-04-25T02:41:47;12.00;85.40
1103;DHT22;538;42.654;23.376;2023-04-25T02:49:11;12.20;84.70
1103;DHT22;538;42.654;23.376;2023-04-25T02:51:38;12.00;83.10
1103;DHT22;538;42.654;23.376;2023-04-25T02:54:05;12.10;83.40
1103;DHT22;538;42.654;23.376;2023-04-25T02:56:33;12.00;83.00
1103;DHT22;538;42.654;23.376;2023-04-25T02:59:00;11.90;83.00
1103;DHT22;538;42.654;23.376;2023-04-25T03:01:27;12.10;84.00
1103;DHT22;538;42.654;23.376;2023-04-25T03:06:23;11.70;83.60
1103;DHT22;538;42.654;23.376;2023-04-25T03:08:50;11.90;83.70
1103;DHT22;538;42.654;23.376;2023-04-25T03:13:45;11.90;85.60
1103;DHT22;538;42.654;23.376;2023-04-25T03:16:12;11.90;85.40
1103;DHT22;538;42.654;23.376;2023-04-25T03:18:39;11.90;85.20
1103;DHT22;538;42.654;23.376;2023-04-25T03:21:07;11.80;85.20
1103;DHT22;538;42.654;23.376;2023-04-25T03:23:35;12.00;85.20
1103;DHT22;538;42.654;23.376;2023-04-25T03:28:30;12.00;83.90
1103;DHT22;538;42.654;23.376;2023-04-25T03:30:57;12.00;84.00
1103;DHT22;538;42.654;23.376;2023-04-25T03:33:23;12.00;83.90
1103;DHT22;538;42.654;23.376;2023-04-25T03:40:47;12.00;82.80
1103;DHT22;538;42.654;23.376;2023-04-25T03:43:14;12.10;83.00
1103;DHT22;538;42.654;23.376;2023-04-25T03:48:08;12.10;81.50
1103;DHT22;538;42.654;23.376;2023-04-25T03:53:03;11.80;82.90
1103;DHT22;538;42.654;23.376;2023-04-25T03:57:59;11.80;84.60
1103;DHT22;538;42.654;23.376;2023-04-25T04:00:26;11.90;85.70
1103;DHT22;538;42.654;23.376;2023-04-25T04:02:53;12.10;87.20
1103;DHT22;538;42.654;23.376;2023-04-25T04:12:42;12.20;88.50
1103;DHT22;538;42.654;23.376;2023-04-25T04:15:11;12.20;89.40
1103;DHT22;538;42.654;23.376;2023-04-25T04:17:39;12.40;90.00
1103;DHT22;538;42.654;23.376;2023-04-25T04:20:07;12.50;90.20
1103;DHT22;538;42.654;23.376;2023-04-25T04:22:34;12.60;89.60
1103;DHT22;538;42.654;23.376;2023-04-25T04:25:02;12.60;89.00
1103;DHT22;538;42.654;23.376;2023-04-25T04:27:31;12.60;87.60
1103;DHT22;538;42.654;23.376;2023-04-25T04:29:58;12.80;85.20
1103;DHT22;538;42.654;23.376;2023-04-25T04:32:27;12.70;83.70
1103;DHT22;538;42.654;23.376;2023-04-25T04:34:55;12.70;83.30
1103;DHT22;538;42.654;23.376;2023-04-25T04:37:23;12.90;83.00
1103;DHT22;538;42.654;23.376;2023-04-25T04:44:46;12.80;81.60
1103;DHT22;538;42.654;23.376;2023-04-25T04:47:13;12.80;81.70
1103;DHT22;538;42.654;23.376;2023-04-25T04:49:42;12.90;81.80
1103;DHT22;538;42.654;23.376;2023-04-25T04:59:32;13.00;79.30
1103;DHT22;538;42.654;23.376;2023-04-25T05:02:00;13.10;79.10
1103;DHT22;538;42.654;23.376;2023-04-25T05:04:27;13.20;78.00
1103;DHT22;538;42.654;23.376;2023-04-25T05:06:55;13.10;77.10
1103;DHT22;538;42.654;23.376;2023-04-25T05:09:22;13.10;76.00
1103;DHT22;538;42.654;23.376;2023-04-25T05:14:18;13.10;72.70
1103;DHT22;538;42.654;23.376;2023-04-25T05:16:45;13.10;72.30
1103;DHT22;538;42.654;23.376;2023-04-25T05:21:40;13.20;74.20
1103;DHT22;538;42.654;23.376;2023-04-25T05:24:10;13.20;73.40
1103;DHT22;538;42.654;23.376;2023-04-25T05:26:37;13.10;71.60
1103;DHT22;538;42.654;23.376;2023-04-25T05:31:31;13.10;71.90
1103;DHT22;538;42.654;23.376;2023-04-25T05:33:59;13.10;72.60
1103;DHT22;538;42.654;23.376;2023-04-25T05:36:26;13.00;74.00
1103;DHT22;538;42.654;23.376;2023-04-25T05:38:53;13.20;75.10
1103;DHT22;538;42.654;23.376;2023-04-25T05:41:22;13.20;74.80
1103;DHT22;538;42.654;23.376;2023-04-25T05:43:49;13.30;74.50
1103;DHT22;538;42.654;23.376;2023-04-25T05:46:16;13.40;74.20
1103;DHT22;538;42.654;23.376;2023-04-25T05:48:43;13.30;73.40
1103;DHT22;538;42.654;23.376;2023-04-25T05:58:34;13.40;70.60
1103;DHT22;538;42.654;23.376;2023-04-25T06:01:01;13.50;70.50
1103;DHT22;538;42.654;23.376;2023-04-25T06:03:29;13.30;70.20
1103;DHT22;538;42.654;23.376;2023-04-25T06:08:23;13.60;69.80
1103;DHT22;538;42.654;23.376;2023-04-25T06:10:50;13.40;69.80
1103;DHT22;538;42.654;23.376;2023-04-25T06:15:46;13.60;66.40
1103;DHT22;538;42.654;23.376;2023-04-25T06:20:40;13.50;66.90
1103;DHT22;538;42.654;23.376;2023-04-25T06:23:07;13.60;67.80
1103;DHT22;538;42.654;23.376;2023-04-25T06:25:34;13.70;67.30
1103;DHT22;538;42.654;23.376;2023-04-25T06:30:29;13.70;65.50
1103;DHT22;538;42.654;23.376;2023-04-25T06:32:57;13.70;64.90
1103;DHT22;538;42.654;23.376;2023-04-25T06:35:24;13.80;64.00
1103;DHT22;538;42.654;23.376;2023-04-25T06:40:19;13.90;64.00
1103;DHT22;538;42.654;23.376;2023-04-25T06:45:13;13.90;64.30
1103;DHT22;538;42.654;23.376;2023-04-25T06:47:40;14.10;62.40
1103;DHT22;538;42.654;23.376;2023-04-25T06:50:09;14.10;61.80
1103;DHT22;538;42.654;23.376;2023-04-25T06:52:36;14.40;61.60
1103;DHT22;538;42.654;23.376;2023-04-25T06:55:04;14.40;60.30
1103;DHT22;538;42.654;23.376;2023-04-25T06:57:31;14.60;58.50
1103;DHT22;538;42.654;23.376;2023-04-25T06:59:58;14.70;57.60
1103;DHT22;538;42.654;23.376;2023-04-25T07:04:52;15.10;55.80
1103;DHT22;538;42.654;23.376;2023-04-25T07:07:23;15.10;54.40
1103;DHT22;538;42.654;23.376;2023-04-25T07:14:45;15.40;46.10
1103;DHT22;538;42.654;23.376;2023-04-25T07:19:42;15.50;43.00
1103;DHT22;538;42.654;23.376;2023-04-25T07:24:37;15.60;41.10
1103;DHT22;538;42.654;23.376;2023-04-25T07:39:26;15.80;40.20
1103;DHT22;538;42.654;23.376;2023-04-25T07:41:54;16.00;37.70
1103;DHT22;538;42.654;23.376;2023-04-25T07:46:49;16.10;36.60
1103;DHT22;538;42.654;23.376;2023-04-25T07:49:16;16.20;36.80
1103;DHT22;538;42.654;23.376;2023-04-25T07:54:16;16.40;36.90
1103;DHT22;538;42.654;23.376;2023-04-25T07:59:12;16.50;34.30
1103;DHT22;538;42.654;23.376;2023-04-25T08:04:07;16.50;33.50
1103;DHT22;538;42.654;23.376;2023-04-25T08:09:01;16.60;34.20
1103;DHT22;538;42.654;23.376;2023-04-25T08:11:28;16.60;33.30
1103;DHT22;538;42.654;23.376;2023-04-25T08:16:26;16.80;32.50
1103;DHT22;538;42.654;23.376;2023-04-25T08:18:53;16.80;32.60
1103;DHT22;538;42.654;23.376;2023-04-25T08:21:20;17.00;31.10
1103;DHT22;538;42.654;23.376;2023-04-25T08:23:47;17.20;33.10
1103;DHT22;538;42.654;23.376;2023-04-25T08:28:42;17.50;32.60
1103;DHT22;538;42.654;23.376;2023-04-25T08:31:09;17.60;31.40
1103;DHT22;538;42.654;23.376;2023-04-25T08:33:38;17.90;29.00
1103;DHT22;538;42.654;23.376;2023-04-25T08:36:05;17.20;23.40
1103;DHT22;538;42.654;23.376;2023-04-25T08:38:32;17.80;24.00
1103;DHT22;538;42.654;23.376;2023-04-25T08:41:00;18.00;24.30
1103;DHT22;538;42.654;23.376;2023-04-25T08:43:29;18.00;24.70
1103;DHT22;538;42.654;23.376;2023-04-25T08:45:59;18.00;25.40
1103;DHT22;538;42.654;23.376;2023-04-25T08:48:27;18.20;25.90
1103;DHT22;538;42.654;23.376;2023-04-25T08:50:56;18.20;22.80
1103;DHT22;538;42.654;23.376;2023-04-25T08:53:27;18.10;25.50
1103;DHT22;538;42.654;23.376;2023-04-25T08:55:55;18.20;24.10
1103;DHT22;538;42.654;23.376;2023-04-25T08:58:23;18.00;23.10
1103;DHT22;538;42.654;23.376;2023-04-25T09:00:51;18.00;24.40
1103;DHT22;538;42.654;23.376;2023-04-25T09:03:18;18.00;25.20
1103;DHT22;538;42.654;23.376;2023-04-25T09:05:45;18.10;30.50
1103;DHT22;538;42.654;23.376;2023-04-25T09:08:13;18.20;33.50
1103;DHT22;538;42.654;23.376;2023-04-25T09:13:09;18.50;34.00
1103;DHT22;538;42.654;23.376;2023-04-25T09:15:47;18.50;32.10
1103;DHT22;538;42.654;23.376;2023-04-25T09:18:22;18.60;32.80
1103;DHT22;538;42.654;23.376;2023-04-25T09:23:19;18.90;28.90
1103;DHT22;538;42.654;23.376;2023-04-25T09:25:47;18.70;28.00
1103;DHT22;538;42.654;23.376;2023-04-25T09:28:15;18.80;26.80
1103;DHT22;538;42.654;23.376;2023-04-25T09:30:42;18.70;26.80
1103;DHT22;538;42.654;23.376;2023-04-25T09:33:10;18.90;26.90
1103;DHT22;538;42.654;23.376;2023-04-25T09:35:39;18.80;25.40
1103;DHT22;538;42.654;23.376;2023-04-25T09:38:08;18.70;25.50
1103;DHT22;538;42.654;23.376;2023-04-25T09:40:40;18.80;26.30
1103;DHT22;538;42.654;23.376;2023-04-25T09:43:10;18.70;26.80
1103;DHT22;538;42.654;23.376;2023-04-25T09:45:47;18.70;25.50
1103;DHT22;538;42.654;23.376;2023-04-25T09:48:18;18.60;24.80
1103;DHT22;538;42.654;23.376;2023-04-25T09:50:47;18.50;25.20
1103;DHT22;538;42.654;23.376;2023-04-25T09:53:30;18.50;25.80
1103;DHT22;538;42.654;23.376;2023-04-25T09:56:00;18.40;26.70
1103;DHT22;538;42.654;23.376;2023-04-25T09:58:29;18.40;26.60
1103;DHT22;538;42.654;23.376;2023-04-25T10:01:00;18.50;26.00
1103;DHT22;538;42.654;23.376;2023-04-25T10:03:30;18.50;26.00
1103;DHT22;538;42.654;23.376;2023-04-25T10:05:59;18.50;23.90
1103;DHT22;538;42.654;23.376;2023-04-25T10:08:31;18.40;22.20
1103;DHT22;538;42.654;23.376;2023-04-25T10:11:02;18.20;22.60
1103;DHT22;538;42.654;23.376;2023-04-25T10:13:30;18.10;23.60
1103;DHT22;538;42.654;23.376;2023-04-25T10:15:59;18.00;24.40
1103;DHT22;538;42.654;23.376;2023-04-25T10:20:54;17.90;23.80
1103;DHT22;538;42.654;23.376;2023-04-25T10:23:23;17.80;25.00
1103;DHT22;538;42.654;23.376;2023-04-25T10:25:51;17.90;27.80
1103;DHT22;538;42.654;23.376;2023-04-25T10:28:20;17.90;28.50
1103;DHT22;538;42.654;23.376;2023-04-25T10:30:57;17.80;27.90
1103;DHT22;538;42.654;23.376;2023-04-25T10:33:32;17.80;29.50
1103;DHT22;538;42.654;23.376;2023-04-25T10:36:09;18.00;32.70
1103;DHT22;538;42.654;23.376;2023-04-25T10:38:36;18.10;38.90
1103;DHT22;538;42.654;23.376;2023-04-25T10:41:04;18.50;39.10
1103;DHT22;538;42.654;23.376;2023-04-25T10:43:37;18.80;42.40
1103;DHT22;538;42.654;23.376;2023-04-25T10:46:15;19.50;37.60
1103;DHT22;538;42.654;23.376;2023-04-25T10:48:47;20.00;30.80
1103;DHT22;538;42.654;23.376;2023-04-25T10:51:22;20.40;23.50
1103;DHT22;538;42.654;23.376;2023-04-25T10:53:58;20.30;21.10
1103;DHT22;538;42.654;23.376;2023-04-25T10:56:27;20.30;22.20
1103;DHT22;538;42.654;23.376;2023-04-25T10:59:05;20.20;21.80
1103;DHT22;538;42.654;23.376;2023-04-25T11:01:37;19.80;20.10
1103;DHT22;538;42.654;23.376;2023-04-25T11:04:04;19.60;19.70
1103;DHT22;538;42.654;23.376;2023-04-25T11:06:42;19.50;20.10
1103;DHT22;538;42.654;23.376;2023-04-25T11:09:13;19.30;20.70
1103;DHT22;538;42.654;23.376;2023-04-25T11:11:40;19.40;21.20
1103;DHT22;538;42.654;23.376;2023-04-25T11:14:09;19.50;21.80
1103;DHT22;538;42.654;23.376;2023-04-25T11:16:36;19.50;19.90
1103;DHT22;538;42.654;23.376;2023-04-25T11:21:30;20.10;18.80
1103;DHT22;538;42.654;23.376;2023-04-25T11:23:59;20.40;16.40
1103;DHT22;538;42.654;23.376;2023-04-25T11:28:57;21.30;15.00
1103;DHT22;538;42.654;23.376;2023-04-25T11:31:26;21.20;15.90
1103;DHT22;538;42.654;23.376;2023-04-25T11:33:54;21.30;15.80
1103;DHT22;538;42.654;23.376;2023-04-25T11:38:52;20.80;14.90
1103;DHT22;538;42.654;23.376;2023-04-25T11:43:47;20.10;16.10
1103;DHT22;538;42.654;23.376;2023-04-25T11:46:15;19.90;17.50
1103;DHT22;538;42.654;23.376;2023-04-25T11:48:44;19.70;18.70
1103;DHT22;538;42.654;23.376;2023-04-25T11:51:12;19.30;18.80
1103;DHT22;538;42.654;23.376;2023-04-25T11:53:41;19.10;19.40
1103;DHT22;538;42.654;23.376;2023-04-25T11:56:10;18.90;19.20
1103;DHT22;538;42.654;23.376;2023-04-25T11:58:56;18.30;12.40
1103;DHT22;538;42.654;23.376;2023-04-25T12:01:28;17.50;14.10
1103;DHT22;538;42.654;23.376;2023-04-25T12:03:57;16.80;17.30
1103;DHT22;538;42.654;23.376;2023-04-25T12:06:26;15.90;20.40
1103;DHT22;538;42.654;23.376;2023-04-25T12:09:03;15.40;23.90
1103;DHT22;538;42.654;23.376;2023-04-25T12:11:31;15.50;32.00
1103;DHT22;538;42.654;23.376;2023-04-25T12:14:02;16.30;28.80
1103;DHT22;538;42.654;23.376;2023-04-25T12:16:40;17.50;22.80
1103;DHT22;538;42.654;23.376;2023-04-25T12:19:09;18.20;16.50
1103;DHT22;538;42.654;23.376;2023-04-25T12:24:11;18.00;16.50
1103;DHT22;538;42.654;23.376;2023-04-25T12:26:48;17.70;17.30
1103;DHT22;538;42.654;23.376;2023-04-25T12:29:17;17.40;18.20
1103;DHT22;538;42.654;23.376;2023-04-25T12:31:44;17.20;19.90
1103;DHT22;538;42.654;23.376;2023-04-25T12:34:13;17.10;20.70
1103;DHT22;538;42.654;23.376;2023-04-25T12:36:40;16.90;21.40
1103;DHT22;538;42.654;23.376;2023-04-25T12:39:07;17.20;22.10
1103;DHT22;538;42.654;23.376;2023-04-25T12:41:34;17.70;22.30
1103;DHT22;538;42.654;23.376;2023-04-25T12:44:01;18.10;17.60
1103;DHT22;538;42.654;23.376;2023-04-25T12:46:28;18.30;19.60
1103;DHT22;538;42.654;23.376;2023-04-25T12:48:55;18.20;19.10
1103;DHT22;538;42.654;23.376;2023-04-25T12:51:24;18.60;21.30
1103;DHT22;538;42.654;23.376;2023-04-25T12:56:20;19.70;18.30
1103;DHT22;538;42.654;23.376;2023-04-25T13:01:15;20.00;18.70
1103;DHT22;538;42.654;23.376;2023-04-25T13:08:38;19.20;16.20
1103;DHT22;538;42.654;23.376;2023-04-25T13:11:07;18.60;17.60
1103;DHT22;538;42.654;23.376;2023-04-25T13:13:34;18.10;17.20
1103;DHT22;538;42.654;23.376;2023-04-25T13:18:29;16.60;21.50
1103;DHT22;538;42.654;23.376;2023-04-25T13:20:56;16.20;24.20
1103;DHT22;538;42.654;23.376;2023-04-25T13:23:24;15.70;26.00
1103;DHT22;538;42.654;23.376;2023-04-25T13:25:54;15.30;29.20
1103;DHT22;538;42.654;23.376;2023-04-25T13:28:23;14.70;32.10
1103;DHT22;538;42.654;23.376;2023-04-25T13:30:50;14.40;37.10
1103;DHT22;538;42.654;23.376;2023-04-25T13:33:17;14.10;41.70
1103;DHT22;538;42.654;23.376;2023-04-25T13:35:46;13.70;44.80
1103;DHT22;538;42.654;23.376;2023-04-25T13:38:19;13.70;50.00
1103;DHT22;538;42.654;23.376;2023-04-25T13:43:16;13.00;57.50
1103;DHT22;538;42.654;23.376;2023-04-25T13:45:43;13.00;60.70
1103;DHT22;538;42.654;23.376;2023-04-25T13:48:10;13.00;60.00
1103;DHT22;538;42.654;23.376;2023-04-25T13:50:37;13.00;62.10
1103;DHT22;538;42.654;23.376;2023-04-25T13:53:04;12.60;66.10
1103;DHT22;538;42.654;23.376;2023-04-25T13:55:31;12.70;69.50
1103;DHT22;538;42.654;23.376;2023-04-25T14:00:35;12.40;74.80
1103;DHT22;538;42.654;23.376;2023-04-25T14:03:03;12.20;77.60
1103;DHT22;538;42.654;23.376;2023-04-25T14:05:33;12.30;79.70
1103;DHT22;538;42.654;23.376;2023-04-25T14:08:04;12.90;82.00
1103;DHT22;538;42.654;23.376;2023-04-25T14:10:32;13.80;80.00
1103;DHT22;538;42.654;23.376;2023-04-25T14:12:59;15.30;58.70
1103;DHT22;538;42.654;23.376;2023-04-25T14:15:29;16.70;49.00
1103;DHT22;538;42.654;23.376;2023-04-25T14:17:57;18.00;39.40
1103;DHT22;538;42.654;23.376;2023-04-25T14:20:25;19.00;27.50
1103;DHT22;538;42.654;23.376;2023-04-25T14:25:20;20.80;20.50
1103;DHT22;538;42.654;23.376;2023-04-25T14:30:16;21.40;16.00
1103;DHT22;538;42.654;23.376;2023-04-25T14:32:43;21.20;15.60
1103;DHT22;538;42.654;23.376;2023-04-25T14:35:12;20.90;15.70
1103;DHT22;538;42.654;23.376;2023-04-25T14:37:40;20.50;15.90
1103;DHT22;538;42.654;23.376;2023-04-25T14:40:08;20.00;15.10
1103;DHT22;538;42.654;23.376;2023-04-25T14:42:37;19.90;16.10
1103;DHT22;538;42.654;23.376;2023-04-25T14:45:06;19.80;15.90
1103;DHT22;538;42.654;23.376;2023-04-25T14:47:34;19.70;16.50
1103;DHT22;538;42.654;23.376;2023-04-25T14:50:01;19.70;17.00
1103;DHT22;538;42.654;23.376;2023-04-25T14:52:30;19.60;18.10
1103;DHT22;538;42.654;23.376;2023-04-25T14:59:52;19.00;21.60
1103;DHT22;538;42.654;23.376;2023-04-25T15:02:20;18.90;23.10
1103;DHT22;538;42.654;23.376;2023-04-25T15:04:47;18.60;22.40
1103;DHT22;538;42.654;23.376;2023-04-25T15:07:14;18.60;20.90
1103;DHT22;538;42.654;23.376;2023-04-25T15:09:42;18.30;21.40
1103;DHT22;538;42.654;23.376;2023-04-25T15:12:09;18.20;21.90
1103;DHT22;538;42.654;23.376;2023-04-25T15:14:36;18.10;23.20
1103;DHT22;538;42.654;23.376;2023-04-25T15:19:31;17.70;23.80
1103;DHT22;538;42.654;23.376;2023-04-25T15:26:56;17.30;25.80
1103;DHT22;538;42.654;23.376;2023-04-25T15:29:23;17.30;26.80
1103;DHT22;538;42.654;23.376;2023-04-25T15:31:51;17.30;27.40
1103;DHT22;538;42.654;23.376;2023-04-25T15:34:18;17.30;27.90
1103;DHT22;538;42.654;23.376;2023-04-25T15:36:46;17.30;27.80
1103;DHT22;538;42.654;23.376;2023-04-25T15:39:12;17.30;27.20
1103;DHT22;538;42.654;23.376;2023-04-25T15:44:08;17.20;29.50
1103;DHT22;538;42.654;23.376;2023-04-25T15:49:03;17.00;25.60
1103;DHT22;538;42.654;23.376;2023-04-25T15:58:54;16.70;25.40
1103;DHT22;538;42.654;23.376;2023-04-25T16:01:22;16.50;23.80
1103;DHT22;538;42.654;23.376;2023-04-25T16:03:51;16.40;24.10
1103;DHT22;538;42.654;23.376;2023-04-25T16:06:17;16.20;25.00
1103;DHT22;538;42.654;23.376;2023-04-25T16:08:56;16.30;25.60
1103;DHT22;538;42.654;23.376;2023-04-25T16:13:59;16.20;24.80
1103;DHT22;538;42.654;23.376;2023-04-25T16:16:35;16.00;26.40
1103;DHT22;538;42.654;23.376;2023-04-25T16:21:30;15.90;29.20
1103;DHT22;538;42.654;23.376;2023-04-25T16:26:24;15.80;32.00
1103;DHT22;538;42.654;23.376;2023-04-25T16:28:52;15.90;32.80
1103;DHT22;538;42.654;23.376;2023-04-25T16:33:48;15.70;32.10
1103;DHT22;538;42.654;23.376;2023-04-25T16:36:15;15.60;28.40
1103;DHT22;538;42.654;23.376;2023-04-25T16:38:42;15.20;28.30
1103;DHT22;538;42.654;23.376;2023-04-25T16:41:09;15.10;27.20
1103;DHT22;538;42.654;23.376;2023-04-25T16:43:38;14.90;27.10
1103;DHT22;538;42.654;23.376;2023-04-25T16:46:05;14.70;28.30
1103;DHT22;538;42.654;23.376;2023-04-25T16:51:02;14.20;32.10
1103;DHT22;538;42.654;23.376;2023-04-25T16:58:24;13.80;41.10
1103;DHT22;538;42.654;23.376;2023-04-25T17:00:51;13.70;44.80
1103;DHT22;538;42.654;23.376;2023-04-25T17:03:19;13.40;47.80
1103;DHT22;538;42.654;23.376;2023-04-25T17:05:49;13.40;51.00
1103;DHT22;538;42.654;23.376;2023-04-25T17:08:17;13.40;53.50
1103;DHT22;538;42.654;23.376;2023-04-25T17:10:45;13.30;55.90
1103;DHT22;538;42.654;23.376;2023-04-25T17:18:06;12.80;60.60
1103;DHT22;538;42.654;23.376;2023-04-25T17:20:34;12.80;63.40
1103;DHT22;538;42.654;23.376;2023-04-25T17:25:30;12.50;68.10
1103;DHT22;538;42.654;23.376;2023-04-25T17:27:58;12.60;70.50
1103;DHT22;538;42.654;23.376;2023-04-25T17:32:52;12.30;71.10
1103;DHT22;538;42.654;23.376;2023-04-25T17:35:19;12.40;64.90
1103;DHT22;538;42.654;23.376;2023-04-25T17:37:47;12.10;63.00
1103;DHT22;538;42.654;23.376;2023-04-25T17:40:16;12.10;61.30
1103;DHT22;538;42.654;23.376;2023-04-25T17:42:44;12.10;57.90
1103;DHT22;538;42.654;23.376;2023-04-25T17:45:12;12.10;59.30
1103;DHT22;538;42.654;23.376;2023-04-25T17:47:39;12.00;59.70
1103;DHT22;538;42.654;23.376;2023-04-25T17:50:07;12.00;60.40
1103;DHT22;538;42.654;23.376;2023-04-25T17:55:03;11.90;65.40
1103;DHT22;538;42.654;23.376;2023-04-25T17:57:31;11.90;65.30
1103;DHT22;538;42.654;23.376;2023-04-25T17:59:59;11.90;66.10
1103;DHT22;538;42.654;23.376;2023-04-25T18:02:28;11.90;67.10
1103;DHT22;538;42.654;23.376;2023-04-25T18:04:58;11.80;64.90
1103;DHT22;538;42.654;23.376;2023-04-25T18:09:53;11.70;65.20
1103;DHT22;538;42.654;23.376;2023-04-25T18:12:21;11.70;63.00
1103;DHT22;538;42.654;23.376;2023-04-25T18:17:16;11.60;56.20
1103;DHT22;538;42.654;23.376;2023-04-25T18:19:47;11.70;57.10
1103;DHT22;538;42.654;23.376;2023-04-25T18:22:16;11.70;57.80
1103;DHT22;538;42.654;23.376;2023-04-25T18:24:43;11.60;60.10
1103;DHT22;538;42.654;23.376;2023-04-25T18:29:38;11.50;60.40
1103;DHT22;538;42.654;23.376;2023-04-25T18:32:07;11.60;59.80
1103;DHT22;538;42.654;23.376;2023-04-25T18:34:36;11.50;60.50
1103;DHT22;538;42.654;23.376;2023-04-25T18:37:06;11.40;57.30
1103;DHT22;538;42.654;23.376;2023-04-25T18:42:02;11.40;55.30
1103;DHT22;538;42.654;23.376;2023-04-25T18:44:29;11.50;54.20
1103;DHT22;538;42.654;23.376;2023-04-25T18:49:28;11.50;52.80
1103;DHT22;538;42.654;23.376;2023-04-25T18:51:56;11.40;52.10
1103;DHT22;538;42.654;23.376;2023-04-25T18:56:51;11.40;52.70
1103;DHT22;538;42.654;23.376;2023-04-25T18:59:20;11.30;55.00
1103;DHT22;538;42.654;23.376;2023-04-25T19:04:18;11.40;55.00
1103;DHT22;538;42.654;23.376;2023-04-25T19:06:45;11.60;55.40
1103;DHT22;538;42.654;23.376;2023-04-25T19:09:15;11.50;55.80
1103;DHT22;538;42.654;23.376;2023-04-25T19:11:43;11.60;54.90
1103;DHT22;538;42.654;23.376;2023-04-25T19:14:10;11.60;54.10
1103;DHT22;538;42.654;23.376;2023-04-25T19:24:01;11.80;52.00
1103;DHT22;538;42.654;23.376;2023-04-25T19:26:31;11.80;51.20
1103;DHT22;538;42.654;23.376;2023-04-25T19:29:06;11.70;49.30
1103;DHT22;538;42.654;23.376;2023-04-25T19:31:36;11.70;50.90
1103;DHT22;538;42.654;23.376;2023-04-25T19:34:04;11.70;51.90
1103;DHT22;538;42.654;23.376;2023-04-25T19:38:59;11.70;51.40
1103;DHT22;538;42.654;23.376;2023-04-25T19:41:31;11.80;50.30
1103;DHT22;538;42.654;23.376;2023-04-25T19:44:00;11.90;50.30
1103;DHT22;538;42.654;23.376;2023-04-25T19:46:29;12.00;50.40
1103;DHT22;538;42.654;23.376;2023-04-25T19:48:57;12.00;49.20
1103;DHT22;538;42.654;23.376;2023-04-25T19:53:53;12.10;47.60
1103;DHT22;538;42.654;23.376;2023-04-25T19:56:20;12.20;48.50
1103;DHT22;538;42.654;23.376;2023-04-25T19:58:48;12.10;47.90
1103;DHT22;538;42.654;23.376;2023-04-25T20:01:16;12.10;49.60
1103;DHT22;538;42.654;23.376;2023-04-25T20:03:43;12.10;50.70
1103;DHT22;538;42.654;23.376;2023-04-25T20:06:12;12.20;50.40
1103;DHT22;538;42.654;23.376;2023-04-25T20:11:08;12.20;48.10
1103;DHT22;538;42.654;23.376;2023-04-25T20:13:36;12.30;47.40
1103;DHT22;538;42.654;23.376;2023-04-25T20:16:05;12.30;48.00
1103;DHT22;538;42.654;23.376;2023-04-25T20:18:32;12.10;46.30
1103;DHT22;538;42.654;23.376;2023-04-25T20:20:59;12.20;47.50
1103;DHT22;538;42.654;23.376;2023-04-25T20:23:27;12.20;48.00
1103;DHT22;538;42.654;23.376;2023-04-25T20:25:54;12.20;47.90
1103;DHT22;538;42.654;23.376;2023-04-25T20:28:21;12.20;48.70
1103;DHT22;538;42.654;23.376;2023-04-25T20:30:49;12.30;49.60
1103;DHT22;538;42.654;23.376;2023-04-25T20:33:18;12.20;50.40
1103;DHT22;538;42.654;23.376;2023-04-25T20:35:46;12.20;49.90
1103;DHT22;538;42.654;23.376;2023-04-25T20:38:13;12.20;49.90
1103;DHT22;538;42.654;23.376;2023-04-25T20:40:40;12.30;48.60
1103;DHT22;538;42.654;23.376;2023-04-25T20:45:37;12.10;47.90